Time;durP1;ratioP1;P1;durP2;ratioP2;P2;SDS_P1;SDS_P2;PMS_P1;PMS_P2;Temp;Humidity;BMP_temperature;BMP_pressure;BME280_temperature;BME280_humidity;BME280_pressure;Samples;Min_cycle;Max_cycle;Signal;HPM_P1;HPM_P2
2021/05/21 00:01:56;;;;;;;9.20;6.73;;;10.70;99.90;;;;;;4407846;32;20193;-75
2021/05/21 00:04:23;;;;;;;10.90;7.33;;;10.50;99.90;;;;;;4406589;32;20170;-74
2021/05/21 00:06:49;;;;;;;10.20;7.63;;;10.60;99.90;;;;;;4405628;32;20544;-74
2021/05/21 00:09:16;;;;;;;13.23;6.80;;;10.50;99.90;;;;;;4403554;32;20547;-73
2021/05/21 00:11:43;;;;;;;11.17;8.00;;;10.50;99.90;;;;;;4404084;32;20234;-74
2021/05/21 00:14:10;;;;;;;10.00;7.07;;;10.60;99.90;;;;;;4402635;32;20167;-73
2021/05/21 00:16:37;;;;;;;9.33;7.27;;;10.60;99.90;;;;;;4405144;32;20212;-74
2021/05/21 00:19:04;;;;;;;11.27;7.83;;;10.60;99.90;;;;;;4405488;32;20198;-74
2021/05/21 00:21:31;;;;;;;11.03;7.60;;;10.70;99.90;;;;;;4408830;32;20398;-74
2021/05/21 00:23:58;;;;;;;11.60;8.13;;;10.60;99.90;;;;;;4408005;32;20182;-74
2021/05/21 00:26:25;;;;;;;12.20;7.90;;;10.60;99.90;;;;;;4407634;32;20187;-74
2021/05/21 00:28:51;;;;;;;11.20;8.10;;;10.50;99.90;;;;;;4407566;32;20167;-73
2021/05/21 00:31:18;;;;;;;11.53;8.20;;;10.40;99.90;;;;;;4409429;32;20277;-74
2021/05/21 00:33:45;;;;;;;10.70;7.83;;;10.40;99.90;;;;;;4408143;32;20194;-74
2021/05/21 00:36:12;;;;;;;11.40;7.43;;;10.50;99.90;;;;;;4409475;32;20441;-74
2021/05/21 00:38:39;;;;;;;11.87;7.50;;;10.50;99.90;;;;;;4408550;32;20494;-73
2021/05/21 00:41:06;;;;;;;12.37;7.67;;;10.50;99.90;;;;;;4408043;32;20540;-74
2021/05/21 00:43:33;;;;;;;10.87;7.70;;;10.50;99.90;;;;;;4408020;32;20177;-74
2021/05/21 00:46:01;;;;;;;11.60;7.67;;;10.50;99.90;;;;;;4408079;32;20169;-74
2021/05/21 00:48:28;;;;;;;11.70;7.57;;;10.50;99.90;;;;;;4408037;32;20427;-74
2021/05/21 00:50:55;;;;;;;12.17;7.70;;;10.50;99.90;;;;;;4407792;32;20162;-74
2021/05/21 00:53:26;;;;;;;10.30;7.67;;;10.50;99.90;;;;;;4407988;32;20170;-73
2021/05/21 00:55:59;;;;;;;12.37;8.20;;;10.50;99.90;;;;;;4409790;32;20209;-73
2021/05/21 00:58:27;;;;;;;11.83;7.73;;;10.50;99.90;;;;;;4407138;32;20163;-74
2021/05/21 01:00:55;;;;;;;11.17;7.53;;;10.40;99.90;;;;;;4407991;32;20209;-74
2021/05/21 01:03:22;;;;;;;10.43;7.47;;;10.50;99.90;;;;;;4407401;32;20211;-73
2021/05/21 01:05:50;;;;;;;11.27;7.83;;;10.50;99.90;;;;;;4408027;32;20167;-74
2021/05/21 01:08:17;;;;;;;12.23;7.97;;;10.50;99.90;;;;;;4407866;32;20155;-74
2021/05/21 01:11:03;;;;;;;11.30;7.43;;;10.50;99.90;;;;;;4408061;32;20163;-73
2021/05/21 01:13:30;;;;;;;10.13;7.63;;;10.60;99.90;;;;;;4408476;32;20150;-74
2021/05/21 01:15:57;;;;;;;11.10;7.70;;;10.60;99.90;;;;;;4410103;32;20480;-74
2021/05/21 01:18:24;;;;;;;10.83;7.70;;;10.60;99.90;;;;;;4410617;32;20175;-73
2021/05/21 01:20:51;;;;;;;12.67;7.50;;;10.60;99.90;;;;;;4411179;32;20143;-73
2021/05/21 01:23:18;;;;;;;13.30;7.93;;;10.50;99.90;;;;;;4410877;32;20192;-73
2021/05/21 01:25:45;;;;;;;12.17;8.10;;;10.50;99.90;;;;;;4410806;32;20461;-74
2021/05/21 01:28:14;;;;;;;11.53;8.23;;;10.50;99.90;;;;;;4410605;32;20152;-73
2021/05/21 01:30:42;;;;;;;11.90;8.00;;;10.50;99.90;;;;;;4410561;32;20414;-74
2021/05/21 01:33:11;;;;;;;11.63;8.30;;;10.40;99.90;;;;;;4411943;32;20147;-74
2021/05/21 01:35:39;;;;;;;12.47;7.83;;;10.40;99.90;;;;;;4411439;32;20163;-74
2021/05/21 01:38:07;;;;;;;11.37;8.00;;;10.40;99.90;;;;;;4410838;32;20198;-74
2021/05/21 01:40:37;;;;;;;11.70;8.00;;;10.40;99.90;;;;;;4411373;32;20258;-74
2021/05/21 01:43:09;;;;;;;10.73;8.20;;;10.30;99.90;;;;;;4410606;32;20181;-75
2021/05/21 01:45:40;;;;;;;11.43;8.50;;;10.30;99.90;;;;;;4410711;32;20159;-74
2021/05/21 01:48:09;;;;;;;10.60;8.17;;;10.30;99.90;;;;;;4411810;32;20201;-75
2021/05/21 01:50:36;;;;;;;12.63;8.43;;;10.30;99.90;;;;;;4410315;32;20165;-74
2021/05/21 01:53:03;;;;;;;12.67;8.27;;;10.20;99.90;;;;;;4410329;32;20143;-74
2021/05/21 01:55:30;;;;;;;12.90;8.40;;;10.30;99.90;;;;;;4410314;32;20167;-74
2021/05/21 01:57:57;;;;;;;13.07;8.47;;;10.40;99.90;;;;;;4410281;32;20197;-74
2021/05/21 02:00:24;;;;;;;11.40;8.20;;;10.40;99.90;;;;;;4411777;32;20190;-74
2021/05/21 02:02:51;;;;;;;11.03;8.30;;;10.40;99.90;;;;;;4410076;32;20162;-74
2021/05/21 02:05:18;;;;;;;14.13;9.37;;;10.30;99.90;;;;;;4410654;32;20201;-74
2021/05/21 02:07:46;;;;;;;12.43;8.73;;;10.20;99.90;;;;;;4410612;32;20155;-74
2021/05/21 02:10:13;;;;;;;13.40;8.60;;;10.20;99.90;;;;;;4409912;32;20155;-74
2021/05/21 02:12:45;;;;;;;12.17;8.87;;;10.20;99.90;;;;;;4409215;32;20163;-74
2021/05/21 02:15:13;;;;;;;12.97;8.87;;;10.20;99.90;;;;;;4409884;32;20160;-74
2021/05/21 02:17:40;;;;;;;14.00;8.73;;;10.20;99.90;;;;;;4409720;32;20220;-74
2021/05/21 02:20:08;;;;;;;14.90;9.23;;;10.20;99.90;;;;;;4409863;32;20190;-74
2021/05/21 02:22:39;;;;;;;13.37;9.27;;;10.20;99.90;;;;;;4409919;32;20476;-74
2021/05/21 02:25:07;;;;;;;14.77;9.40;;;10.10;99.90;;;;;;4410144;32;20151;-74
2021/05/21 02:27:34;;;;;;;13.03;8.70;;;10.00;99.90;;;;;;4411316;32;20198;-74
2021/05/21 02:30:01;;;;;;;12.93;9.43;;;10.10;99.90;;;;;;4409093;32;20159;-73
2021/05/21 02:32:29;;;;;;;12.67;8.20;;;10.10;99.90;;;;;;4409783;32;20159;-74
2021/05/21 02:34:56;;;;;;;10.57;8.40;;;10.10;99.90;;;;;;4410001;32;20156;-74
2021/05/21 02:37:23;;;;;;;12.27;9.07;;;10.10;99.90;;;;;;4411152;32;20178;-73
2021/05/21 02:39:50;;;;;;;12.47;9.13;;;10.00;99.90;;;;;;4409724;32;20465;-74
2021/05/21 02:42:17;;;;;;;12.10;8.80;;;10.00;99.90;;;;;;4409625;32;20147;-73
2021/05/21 02:44:44;;;;;;;13.43;9.27;;;10.00;99.90;;;;;;4409035;32;20210;-74
2021/05/21 02:47:11;;;;;;;12.57;8.93;;;9.90;99.90;;;;;;4409728;32;20151;-73
2021/05/21 02:49:38;;;;;;;13.43;8.97;;;10.00;99.90;;;;;;4409417;32;20142;-74
2021/05/21 02:52:05;;;;;;;13.63;9.77;;;9.90;99.90;;;;;;4410354;32;20215;-73
2021/05/21 02:54:32;;;;;;;12.33;8.97;;;9.90;99.90;;;;;;4410936;32;20163;-73
2021/05/21 02:56:58;;;;;;;14.93;8.80;;;9.90;99.90;;;;;;4409391;32;20174;-73
2021/05/21 02:59:25;;;;;;;11.77;8.43;;;9.90;99.90;;;;;;4410737;32;20146;-73
2021/05/21 03:01:52;;;;;;;12.97;9.07;;;9.90;99.90;;;;;;4410725;32;20142;-73
2021/05/21 03:04:19;;;;;;;11.77;9.20;;;9.90;99.90;;;;;;4409350;32;20159;-73
2021/05/21 03:06:46;;;;;;;15.00;9.20;;;9.90;99.90;;;;;;4409273;32;20159;-73
2021/05/21 03:09:13;;;;;;;12.43;9.17;;;9.90;99.90;;;;;;4409528;32;20406;-73
2021/05/21 03:11:40;;;;;;;13.10;9.27;;;9.90;99.90;;;;;;4408985;32;20202;-73
2021/05/21 03:14:07;;;;;;;14.03;9.20;;;9.90;99.90;;;;;;4409074;32;20163;-73
2021/05/21 03:16:33;;;;;;;13.33;9.67;;;9.90;99.90;;;;;;4408512;32;20204;-73
2021/05/21 03:19:01;;;;;;;13.10;9.10;;;9.90;99.90;;;;;;4410043;32;20146;-73
2021/05/21 03:21:28;;;;;;;11.97;8.53;;;9.90;99.90;;;;;;4409002;32;20155;-73
2021/05/21 03:23:56;;;;;;;12.07;9.30;;;10.00;99.90;;;;;;4409257;32;20437;-73
2021/05/21 03:26:22;;;;;;;15.97;10.00;;;10.00;99.90;;;;;;4408976;32;20194;-74
2021/05/21 03:28:49;;;;;;;14.53;9.93;;;10.00;99.90;;;;;;4408262;32;20163;-73
2021/05/21 03:31:16;;;;;;;15.60;9.87;;;10.00;99.90;;;;;;4408508;32;20159;-73
2021/05/21 03:33:43;;;;;;;13.33;9.07;;;10.00;99.90;;;;;;4408437;32;20485;-73
2021/05/21 03:36:10;;;;;;;13.60;9.33;;;10.00;99.90;;;;;;4408347;32;20218;-73
2021/05/21 03:38:38;;;;;;;15.17;10.13;;;9.90;99.90;;;;;;4409238;32;20461;-74
2021/05/21 03:41:06;;;;;;;14.43;9.97;;;9.90;99.90;;;;;;4408829;32;20193;-74
2021/05/21 03:43:33;;;;;;;16.27;10.93;;;9.90;99.90;;;;;;4410006;32;20190;-74
2021/05/21 03:46:00;;;;;;;16.10;11.07;;;9.90;99.90;;;;;;4408697;32;20217;-75
2021/05/21 03:48:28;;;;;;;16.47;11.43;;;9.90;99.90;;;;;;4409501;32;20449;-75
2021/05/21 03:50:54;;;;;;;14.93;10.47;;;9.90;99.90;;;;;;4408774;32;20230;-75
2021/05/21 03:53:22;;;;;;;16.33;10.83;;;9.90;99.90;;;;;;4409896;32;20143;-75
2021/05/21 03:55:48;;;;;;;15.53;10.33;;;9.80;99.90;;;;;;4408963;32;20155;-75
2021/05/21 03:58:15;;;;;;;14.90;10.53;;;9.90;99.90;;;;;;4408116;32;20453;-75
2021/05/21 04:00:42;;;;;;;15.40;10.07;;;9.90;99.90;;;;;;4409140;32;20174;-73
2021/05/21 04:03:09;;;;;;;15.83;10.37;;;10.00;99.90;;;;;;4408144;32;20244;-74
2021/05/21 04:05:37;;;;;;;13.70;10.07;;;10.10;99.90;;;;;;4409660;32;20257;-77
2021/05/21 04:08:04;;;;;;;14.83;10.33;;;10.20;99.90;;;;;;4407979;32;20194;-77
2021/05/21 04:10:32;;;;;;;16.93;10.83;;;10.20;99.90;;;;;;4406994;32;20193;-75
2021/05/21 04:12:59;;;;;;;15.53;11.10;;;10.20;99.90;;;;;;4408153;32;20187;-75
2021/05/21 04:15:26;;;;;;;16.23;11.00;;;10.20;99.90;;;;;;4407549;32;20159;-76
2021/05/21 04:17:53;;;;;;;18.57;10.67;;;10.20;99.90;;;;;;4408203;32;20178;-73
2021/05/21 04:20:20;;;;;;;14.63;10.53;;;10.30;99.90;;;;;;4408334;32;20189;-76
2021/05/21 04:22:47;;;;;;;16.73;12.05;;;10.30;99.90;;;;;;4407415;32;20058;-75
2021/05/21 04:25:14;;;;;;;14.93;10.67;;;10.30;99.90;;;;;;4409515;32;20481;-77
2021/05/21 04:27:41;;;;;;;16.40;11.00;;;10.40;99.90;;;;;;4408562;32;20191;-77
2021/05/21 04:30:08;;;;;;;16.00;10.27;;;10.40;99.90;;;;;;4408128;32;20135;-76
2021/05/21 04:32:35;;;;;;;14.73;10.17;;;10.40;99.90;;;;;;4408522;32;20187;-76
2021/05/21 04:35:02;;;;;;;14.50;10.47;;;10.30;99.90;;;;;;4408429;32;20162;-76
2021/05/21 04:37:29;;;;;;;14.83;10.40;;;10.40;99.90;;;;;;4407985;32;20429;-76
2021/05/21 04:39:56;;;;;;;15.33;10.20;;;10.60;99.90;;;;;;4408500;32;20146;-76
2021/05/21 04:42:42;;;;;;;13.70;9.93;;;10.70;99.90;;;;;;4409746;32;20372;-76
2021/05/21 04:45:10;;;;;;;15.13;9.97;;;10.80;99.90;;;;;;4408150;32;20143;-75
2021/05/21 04:47:37;;;;;;;15.43;10.07;;;11.00;99.90;;;;;;4408129;32;20194;-75
2021/05/21 04:50:05;;;;;;;15.33;9.90;;;11.00;99.90;;;;;;4411322;32;20138;-76
2021/05/21 04:52:31;;;;;;;14.47;9.90;;;11.00;99.90;;;;;;4411579;32;20245;-76
2021/05/21 04:54:58;;;;;;;20.23;9.87;;;11.00;99.90;;;;;;4410261;32;20438;-76
2021/05/21 04:57:26;;;;;;;14.13;9.47;;;11.10;99.90;;;;;;4410719;32;20490;-76
2021/05/21 04:59:53;;;;;;;14.23;10.13;;;11.10;99.90;;;;;;4410990;32;20524;-76
2021/05/21 05:02:20;;;;;;;12.33;9.13;;;11.00;99.90;;;;;;4411802;32;20155;-76
2021/05/21 05:04:47;;;;;;;12.47;8.97;;;11.00;99.90;;;;;;4410487;32;20181;-76
2021/05/21 05:07:14;;;;;;;14.33;9.77;;;11.10;99.90;;;;;;4410780;32;20181;-76
2021/05/21 05:09:41;;;;;;;15.20;9.60;;;11.10;99.90;;;;;;4411996;32;20215;-76
2021/05/21 05:12:08;;;;;;;12.90;9.10;;;11.10;99.90;;;;;;4410458;32;20203;-76
2021/05/21 05:14:35;;;;;;;11.87;9.37;;;11.10;99.90;;;;;;4408185;32;20558;-76
2021/05/21 05:17:02;;;;;;;14.30;9.40;;;11.20;99.90;;;;;;4408827;32;20194;-76
2021/05/21 05:19:29;;;;;;;12.90;9.20;;;11.30;99.90;;;;;;4409156;32;20193;-76
2021/05/21 05:21:57;;;;;;;11.70;8.63;;;11.30;99.90;;;;;;4410610;32;20447;-77
2021/05/21 05:24:25;;;;;;;13.30;8.50;;;11.50;99.90;;;;;;4408647;32;20155;-76
2021/05/21 05:26:52;;;;;;;11.57;8.57;;;11.50;99.90;;;;;;4409505;32;20190;-75
2021/05/21 05:29:19;;;;;;;14.10;8.50;;;11.60;99.90;;;;;;4410628;32;20143;-76
2021/05/21 05:31:46;;;;;;;12.07;8.67;;;11.70;99.90;;;;;;4409947;32;20143;-76
2021/05/21 05:34:14;;;;;;;12.70;8.90;;;11.80;99.90;;;;;;4409013;32;20174;-76
2021/05/21 05:36:42;;;;;;;13.73;8.80;;;11.90;99.90;;;;;;4410396;32;20162;-75
2021/05/21 05:39:09;;;;;;;12.93;8.47;;;11.90;99.90;;;;;;4410564;32;20199;-76
2021/05/21 05:41:37;;;;;;;11.30;8.37;;;11.90;99.90;;;;;;4412317;32;20188;-76
2021/05/21 05:44:04;;;;;;;11.70;7.97;;;12.10;99.90;;;;;;4410330;32;20143;-76
2021/05/21 05:46:31;;;;;;;11.10;7.60;;;12.20;99.90;;;;;;4410374;32;20159;-75
2021/05/21 05:48:58;;;;;;;14.27;8.40;;;12.30;99.90;;;;;;4411085;32;20209;-75
2021/05/21 05:51:25;;;;;;;11.63;7.77;;;12.30;99.90;;;;;;4410235;32;20187;-75
2021/05/21 05:53:52;;;;;;;12.03;7.23;;;12.40;99.90;;;;;;4411043;32;20151;-76
2021/05/21 05:56:19;;;;;;;10.63;7.20;;;12.60;99.90;;;;;;4411612;32;20158;-76
2021/05/21 05:58:45;;;;;;;13.27;7.40;;;12.70;99.90;;;;;;4410036;32;20183;-76
2021/05/21 06:01:12;;;;;;;12.10;7.10;;;12.90;99.90;;;;;;4396185;32;20179;-75
2021/05/21 06:03:39;;;;;;;10.93;6.70;;;12.90;99.90;;;;;;4411832;32;20181;-74
2021/05/21 06:06:06;;;;;;;8.87;6.63;;;12.80;99.90;;;;;;4411414;32;20534;-74
2021/05/21 06:08:53;;;;;;;10.17;6.80;;;12.90;99.90;;;;;;4410133;32;20155;-75
2021/05/21 06:11:20;;;;;;;9.33;6.77;;;12.80;99.90;;;;;;4403628;32;20163;-74
2021/05/21 06:13:47;;;;;;;10.40;6.70;;;12.90;99.90;;;;;;4411125;32;20193;-74
2021/05/21 06:16:14;;;;;;;10.83;6.67;;;13.00;99.90;;;;;;4409910;32;20166;-74
2021/05/21 06:18:41;;;;;;;10.23;6.37;;;12.90;99.90;;;;;;4411280;32;20399;-74
2021/05/21 06:21:09;;;;;;;10.97;6.13;;;13.00;99.90;;;;;;4410354;32;20193;-74
2021/05/21 06:23:38;;;;;;;15.10;6.80;;;13.10;99.90;;;;;;4409916;32;20143;-74
2021/05/21 06:26:30;;;;;;;11.97;6.90;;;13.30;99.90;;;;;;4410035;32;20174;-74
2021/05/21 06:28:57;;;;;;;10.37;6.70;;;13.40;99.90;;;;;;4409325;32;20177;-75
2021/05/21 06:31:24;;;;;;;11.97;6.33;;;13.70;99.90;;;;;;4408790;32;20257;-75
2021/05/21 06:33:51;;;;;;;10.90;6.60;;;13.80;99.90;;;;;;4407783;32;20156;-75
2021/05/21 06:36:18;;;;;;;10.00;5.80;;;13.80;99.90;;;;;;4408067;32;20183;-75
2021/05/21 06:38:45;;;;;;;9.40;6.00;;;13.70;99.90;;;;;;4408919;32;20214;-75
2021/05/21 06:41:12;;;;;;;8.57;5.67;;;13.70;99.90;;;;;;4408264;32;20162;-75
2021/05/21 06:43:39;;;;;;;10.13;5.57;;;13.90;99.90;;;;;;4408722;32;20431;-75
2021/05/21 06:46:06;;;;;;;7.60;5.07;;;13.90;99.90;;;;;;4407646;32;20154;-74
2021/05/21 06:48:33;;;;;;;7.93;5.30;;;14.10;99.90;;;;;;4409103;32;20155;-74
2021/05/21 06:51:02;;;;;;;6.90;4.70;;;14.20;99.90;;;;;;4409622;32;20169;-74
2021/05/21 06:53:30;;;;;;;7.60;4.57;;;14.30;99.90;;;;;;4409987;32;20442;-74
2021/05/21 06:55:58;;;;;;;7.50;4.80;;;14.40;99.90;;;;;;4408724;32;20214;-74
2021/05/21 06:58:26;;;;;;;7.57;4.60;;;14.30;99.90;;;;;;4409067;32;20522;-76
2021/05/21 07:00:58;;;;;;;9.60;4.33;;;14.30;99.90;;;;;;4409194;32;20143;-73
2021/05/21 07:03:28;;;;;;;9.20;4.47;;;14.50;99.90;;;;;;4410733;32;20186;-76
2021/05/21 07:05:56;;;;;;;5.67;3.90;;;14.60;99.90;;;;;;4409122;32;20193;-73
2021/05/21 07:08:24;;;;;;;5.93;3.20;;;14.50;99.90;;;;;;4404465;32;20171;-74
2021/05/21 07:10:51;;;;;;;5.87;3.17;;;14.50;99.50;;;;;;4402881;32;20203;-73
2021/05/21 07:13:20;;;;;;;5.50;3.00;;;14.70;97.00;;;;;;4406158;32;20232;-73
2021/05/21 07:15:47;;;;;;;5.37;2.93;;;14.70;97.40;;;;;;4405162;32;20408;-73
2021/05/21 07:18:14;;;;;;;5.03;2.80;;;14.80;97.70;;;;;;4405833;32;20174;-73
2021/05/21 07:20:42;;;;;;;3.37;2.33;;;15.00;96.00;;;;;;4408145;32;20178;-73
2021/05/21 07:23:09;;;;;;;3.53;2.40;;;15.00;94.00;;;;;;4406668;32;20214;-73
2021/05/21 07:25:36;;;;;;;4.90;2.10;;;15.20;93.80;;;;;;4405965;32;20205;-74
2021/05/21 07:28:03;;;;;;;2.63;2.27;;;15.40;90.20;;;;;;4410171;32;20159;-72
2021/05/21 07:30:30;;;;;;;4.20;2.00;;;15.30;89.00;;;;;;4408751;32;20162;-73
2021/05/21 07:32:57;;;;;;;2.97;2.03;;;15.30;86.00;;;;;;4408660;32;20174;-73
2021/05/21 07:35:24;;;;;;;2.63;1.80;;;15.40;87.60;;;;;;4409670;32;20225;-73
2021/05/21 07:37:52;;;;;;;3.20;1.97;;;15.50;84.20;;;;;;4410099;32;20163;-74
2021/05/21 07:40:20;;;;;;;2.77;1.97;;;15.70;83.10;;;;;;4410160;32;20155;-73
2021/05/21 07:42:47;;;;;;;3.27;1.73;;;15.80;81.70;;;;;;4407656;32;20472;-74
2021/05/21 07:45:17;;;;;;;1.80;1.33;;;15.90;76.60;;;;;;4396612;32;20182;-74
2021/05/21 07:47:45;;;;;;;3.93;1.50;;;16.00;74.00;;;;;;4408384;32;20144;-74
2021/05/21 07:50:12;;;;;;;2.27;1.70;;;16.10;73.10;;;;;;4408091;32;20215;-74
2021/05/21 07:52:39;;;;;;;2.20;1.40;;;16.30;70.70;;;;;;4408518;32;20151;-74
2021/05/21 07:55:07;;;;;;;4.53;1.80;;;16.30;70.50;;;;;;4409840;32;20190;-74
2021/05/21 07:57:37;;;;;;;2.40;1.60;;;16.40;69.80;;;;;;4410055;32;20511;-74
2021/05/21 08:00:06;;;;;;;2.07;1.57;;;16.60;68.30;;;;;;4408959;32;20144;-74
2021/05/21 08:02:33;;;;;;;4.27;1.70;;;16.50;67.10;;;;;;4408651;32;20380;-74
2021/05/21 08:05:00;;;;;;;3.10;1.60;;;16.50;66.20;;;;;;4409730;32;20215;-73
2021/05/21 08:07:27;;;;;;;2.47;1.30;;;16.50;66.30;;;;;;4408680;32;20142;-74
2021/05/21 08:09:56;;;;;;;1.93;1.30;;;16.70;64.90;;;;;;4408277;32;20151;-75
2021/05/21 08:12:23;;;;;;;1.97;1.20;;;16.90;64.50;;;;;;4407857;32;20186;-73
2021/05/21 08:14:50;;;;;;;2.40;1.40;;;17.30;62.40;;;;;;4407544;32;20135;-74
2021/05/21 08:17:16;;;;;;;2.03;1.30;;;17.40;59.40;;;;;;4407714;32;20511;-74
2021/05/21 08:19:44;;;;;;;2.33;1.30;;;17.30;59.20;;;;;;4407751;32;20147;-73
2021/05/21 08:22:11;;;;;;;2.00;1.30;;;17.30;58.50;;;;;;4407576;32;20147;-74
2021/05/21 08:24:38;;;;;;;2.67;1.20;;;17.20;57.10;;;;;;4407859;32;20196;-73
2021/05/21 08:27:05;;;;;;;1.87;1.20;;;17.90;56.70;;;;;;4407940;32;20144;-73
2021/05/21 08:29:33;;;;;;;2.10;1.10;;;18.60;55.30;;;;;;4406976;32;20155;-72
2021/05/21 08:32:01;;;;;;;3.07;1.33;;;18.90;55.10;;;;;;4407538;32;20469;-73
2021/05/21 08:34:29;;;;;;;2.63;1.00;;;18.70;55.50;;;;;;4407527;32;20188;-73
2021/05/21 08:36:57;;;;;;;2.20;1.00;;;18.60;54.60;;;;;;4407745;32;20500;-73
2021/05/21 08:39:23;;;;;;;1.60;1.10;;;18.60;53.70;;;;;;4407602;32;20198;-74
2021/05/21 08:41:53;;;;;;;2.77;1.20;;;18.70;53.90;;;;;;4407625;32;20176;-73
2021/05/21 08:44:21;;;;;;;3.73;1.20;;;19.40;51.70;;;;;;4407581;32;20457;-74
2021/05/21 08:46:48;;;;;;;1.90;1.07;;;20.00;51.00;;;;;;4407456;32;20144;-73
2021/05/21 08:49:16;;;;;;;2.43;0.90;;;19.70;47.70;;;;;;4408948;32;20178;-73
2021/05/21 08:51:44;;;;;;;0.97;0.90;;;19.60;49.20;;;;;;4407641;32;20139;-74
2021/05/21 08:54:32;;;;;;;1.43;0.90;;;19.60;48.50;;;;;;4408974;32;20165;-74
2021/05/21 08:56:59;;;;;;;2.27;0.90;;;19.70;47.80;;;;;;4407676;32;20200;-75
2021/05/21 08:59:26;;;;;;;4.40;1.10;;;19.30;48.10;;;;;;4408018;32;20194;-74
2021/05/21 09:01:55;;;;;;;1.40;1.00;;;18.70;50.70;;;;;;4407158;32;20151;-74
2021/05/21 09:04:23;;;;;;;3.20;1.17;;;18.50;51.20;;;;;;4408385;32;20495;-74
2021/05/21 09:06:50;;;;;;;1.50;1.07;;;18.20;52.30;;;;;;4407155;32;20215;-74
2021/05/21 09:09:18;;;;;;;3.03;1.10;;;17.90;52.60;;;;;;4406827;32;20206;-73
2021/05/21 09:11:46;;;;;;;1.87;1.17;;;18.00;53.80;;;;;;4406894;32;20194;-74
2021/05/21 09:14:15;;;;;;;1.90;1.20;;;18.00;53.70;;;;;;4407155;32;20190;-76
2021/05/21 09:16:43;;;;;;;2.10;1.20;;;18.20;54.30;;;;;;4407061;32;20147;-75
2021/05/21 09:19:14;;;;;;;2.83;1.10;;;18.40;53.50;;;;;;4406542;32;20408;-73
2021/05/21 09:21:56;;;;;;;1.20;1.00;;;18.40;53.30;;;;;;4407250;32;20195;-75
2021/05/21 09:24:25;;;;;;;1.83;1.10;;;18.50;52.10;;;;;;4407260;32;20198;-73
2021/05/21 09:26:53;;;;;;;2.80;1.00;;;17.90;53.60;;;;;;4407105;32;20151;-74
2021/05/21 09:29:45;;;;;;;2.57;1.30;;;18.00;53.90;;;;;;4407321;32;20280;-76
2021/05/21 09:32:21;;;;;;;1.63;1.23;;;18.10;54.20;;;;;;4407686;32;20143;-75
2021/05/21 09:35:10;;;;;;;1.97;1.30;;;18.10;55.40;;;;;;4408966;32;20159;-75
2021/05/21 09:37:50;;;;;;;2.23;1.50;;;18.80;54.80;;;;;;4410061;32;20475;-74
2021/05/21 09:40:20;;;;;;;2.43;1.40;;;19.70;52.80;;;;;;4409744;32;20254;-74
2021/05/21 09:42:50;;;;;;;1.53;1.23;;;19.80;52.30;;;;;;4410133;32;20468;-73
2021/05/21 09:45:26;;;;;;;4.47;1.20;;;20.20;50.60;;;;;;4410865;32;20222;-74
2021/05/21 09:47:57;;;;;;;3.03;1.60;;;20.00;51.50;;;;;;4410210;32;20155;-74
2021/05/21 09:50:48;;;;;;;2.30;1.40;;;19.70;51.30;;;;;;4409742;32;20169;-73
2021/05/21 09:53:16;;;;;;;2.90;1.43;;;19.60;50.00;;;;;;4410090;32;20148;-73
2021/05/21 09:55:52;;;;;;;3.57;1.47;;;19.50;49.40;;;;;;4411428;32;20170;-75
2021/05/21 09:58:41;;;;;;;4.50;1.50;;;19.00;50.80;;;;;;4409991;32;20191;-73
2021/05/21 10:01:19;;;;;;;2.53;1.40;;;19.10;51.10;;;;;;4410254;32;20163;-73
2021/05/21 10:03:54;;;;;;;2.87;1.50;;;19.00;51.60;;;;;;4411238;32;20229;-73
2021/05/21 10:06:23;;;;;;;2.23;1.20;;;18.90;51.90;;;;;;4411472;32;20147;-73
2021/05/21 10:08:55;;;;;;;2.93;1.60;;;19.00;52.50;;;;;;4411264;32;20214;-73
2021/05/21 10:11:22;;;;;;;4.70;1.63;;;18.80;52.50;;;;;;4410725;32;20175;-73
2021/05/21 10:13:50;;;;;;;5.40;1.97;;;18.50;53.70;;;;;;4409966;32;20201;-72
2021/05/21 10:16:18;;;;;;;4.37;1.53;;;18.30;54.30;;;;;;4411223;32;20174;-73
2021/05/21 10:18:53;;;;;;;3.83;1.40;;;18.40;54.80;;;;;;4409372;32;20465;-73
2021/05/21 10:21:22;;;;;;;3.77;1.70;;;18.80;54.60;;;;;;4409560;32;20196;-75
2021/05/21 10:24:03;;;;;;;2.47;1.50;;;19.50;52.30;;;;;;4410342;32;20143;-74
2021/05/21 10:26:38;;;;;;;4.03;1.47;;;20.20;52.90;;;;;;4410076;32;20151;-75
2021/05/21 10:29:11;;;;;;;2.77;1.63;;;20.40;50.40;;;;;;4410797;32;20209;-73
2021/05/21 10:31:39;;;;;;;1.77;1.30;;;20.40;51.50;;;;;;4410804;32;20147;-73
2021/05/21 10:34:24;;;;;;;2.00;1.60;;;20.50;50.30;;;;;;4409679;32;20147;-75
2021/05/21 10:36:51;;;;;;;3.10;2.00;;;20.50;49.00;;;;;;4411181;32;20185;-75
2021/05/21 10:39:20;;;;;;;2.67;1.77;;;20.80;47.60;;;;;;4410872;32;20186;-75
2021/05/21 10:41:55;;;;;;;2.13;1.40;;;21.40;48.70;;;;;;4410323;32;20183;-75
2021/05/21 10:44:23;;;;;;;1.57;1.40;;;22.00;47.70;;;;;;4411285;32;20171;-75
2021/05/21 10:47:12;;;;;;;2.67;1.50;;;22.80;46.20;;;;;;4409990;32;20167;-75
2021/05/21 10:49:38;;;;;;;2.10;1.63;;;22.80;44.90;;;;;;4410025;32;20166;-75
2021/05/21 10:52:06;;;;;;;2.07;1.60;;;22.00;45.30;;;;;;4410889;32;20174;-75
2021/05/21 10:54:34;;;;;;;4.03;1.93;;;21.90;46.40;;;;;;4408859;32;20186;-75
2021/05/21 10:57:15;;;;;;;2.27;1.70;;;21.50;46.50;;;;;;4409352;32;20232;-76
2021/05/21 10:59:51;;;;;;;2.87;1.43;;;21.70;46.20;;;;;;4409036;32;20177;-75
2021/05/21 11:02:21;;;;;;;2.40;1.50;;;22.10;44.70;;;;;;4409361;32;20155;-74
2021/05/21 11:04:53;;;;;;;4.03;1.50;;;22.60;44.60;;;;;;4409028;32;20155;-75
2021/05/21 11:07:47;;;;;;;5.53;2.33;;;22.70;44.60;;;;;;4410188;32;20521;-75
2021/05/21 11:10:26;;;;;;;1.73;1.43;;;22.80;43.20;;;;;;4407410;32;20185;-75
2021/05/21 11:12:58;;;;;;;3.05;1.42;;;23.10;43.60;;;;;;4408720;32;20186;-76
2021/05/21 11:15:47;;;;;;;2.03;1.50;;;23.90;43.00;;;;;;4409399;32;20202;-75
2021/05/21 11:18:20;;;;;;;2.75;1.92;;;24.60;42.50;;;;;;4409212;32;20356;-74
2021/05/21 11:21:08;;;;;;;4.00;2.22;;;24.20;40.60;;;;;;4408902;32;20154;-75
2021/05/21 11:23:41;;;;;;;2.00;1.50;;;23.70;42.00;;;;;;4410496;32;20143;-75
2021/05/21 11:26:13;;;;;;;2.43;1.60;;;23.00;42.80;;;;;;4410537;32;20183;-75
2021/05/21 11:28:49;;;;;;;3.00;1.62;;;23.10;43.10;;;;;;4409190;32;20196;-76
2021/05/21 11:31:24;;;;;;;2.10;1.58;;;23.80;41.70;;;;;;4408676;32;20151;-75
2021/05/21 11:33:53;;;;;;;4.03;1.60;;;23.60;42.70;;;;;;4410339;32;20165;-75
2021/05/21 11:36:24;;;;;;;1.50;1.37;;;23.50;40.80;;;;;;4408033;32;20159;-75
2021/05/21 11:38:52;;;;;;;2.70;1.43;;;24.00;40.90;;;;;;4408474;32;20197;-75
2021/05/21 11:41:30;;;;;;;2.80;1.52;;;24.30;39.90;;;;;;4408543;32;20215;-75
2021/05/21 11:44:08;;;;;;;4.03;1.80;;;24.90;39.40;;;;;;4409326;32;20402;-75
2021/05/21 11:46:42;;;;;;;1.83;1.58;;;25.20;38.70;;;;;;4408540;32;20142;-76
2021/05/21 11:49:10;;;;;;;2.20;1.50;;;24.30;40.40;;;;;;4409459;32;20450;-76
2021/05/21 11:51:38;;;;;;;2.40;1.50;;;24.90;40.90;;;;;;4408016;32;20541;-75
2021/05/21 11:54:05;;;;;;;3.00;1.50;;;25.90;39.20;;;;;;4410121;32;20160;-75
2021/05/21 11:56:35;;;;;;;1.85;1.50;;;25.80;39.20;;;;;;4408534;32;20135;-76
2021/05/21 11:59:10;;;;;;;2.47;1.70;;;25.80;37.70;;;;;;4408072;32;20154;-75
2021/05/21 12:02:08;;;;;;;2.42;1.60;;;26.10;38.10;;;;;;4409419;32;20710;-75
2021/05/21 12:04:39;;;;;;;1.62;1.40;;;26.00;37.70;;;;;;4361766;32;20180;-75
2021/05/21 12:07:15;;;;;;;1.98;1.30;;;25.10;36.70;;;;;;4362863;32;20164;-75
2021/05/21 12:09:54;;;;;;;2.75;1.35;;;25.30;36.80;;;;;;4362533;32;20151;-75
2021/05/21 12:12:23;;;;;;;2.25;1.77;;;25.90;36.80;;;;;;4361637;32;20167;-75
2021/05/21 12:14:50;;;;;;;1.95;1.40;;;25.60;36.60;;;;;;4361227;33;20219;-75
2021/05/21 12:17:17;;;;;;;2.35;1.50;;;25.60;37.50;;;;;;4361243;33;20148;-75
2021/05/21 12:19:44;;;;;;;2.20;1.35;;;25.40;36.90;;;;;;4361200;32;20219;-75
2021/05/21 12:22:11;;;;;;;1.98;1.35;;;24.00;38.70;;;;;;4360945;32;20153;-75
2021/05/21 12:24:43;;;;;;;2.28;1.30;;;23.50;39.30;;;;;;4361291;32;20494;-75
2021/05/21 12:27:11;;;;;;;1.70;1.40;;;23.40;39.40;;;;;;4360809;33;20210;-75
2021/05/21 12:29:38;;;;;;;4.00;1.40;;;23.70;39.80;;;;;;4362185;32;20198;-75
2021/05/21 12:32:06;;;;;;;3.75;1.60;;;23.30;40.80;;;;;;4362671;32;20165;-75
2021/05/21 12:34:34;;;;;;;2.37;1.20;;;23.30;41.90;;;;;;4361085;33;20160;-75
2021/05/21 12:37:06;;;;;;;3.33;1.30;;;23.50;42.10;;;;;;4360161;33;20226;-75
2021/05/21 12:39:43;;;;;;;1.40;1.12;;;24.00;40.90;;;;;;4362517;33;20198;-76
2021/05/21 12:42:21;;;;;;;2.37;1.30;;;24.00;40.60;;;;;;4405854;32;20563;-75
2021/05/21 12:44:52;;;;;;;1.85;1.42;;;24.60;39.80;;;;;;4409605;32;20200;-76
2021/05/21 12:47:20;;;;;;;2.10;1.17;;;25.00;40.20;;;;;;4409239;32;20444;-75
2021/05/21 12:49:52;;;;;;;1.67;1.20;;;25.60;39.00;;;;;;4407666;32;20150;-76
2021/05/21 12:52:19;;;;;;;1.80;1.45;;;24.90;37.90;;;;;;4409493;32;20182;-75